Time;durP1;ratioP1;P1;durP2;ratioP2;P2;SDS_P1;SDS_P2;PMS_P1;PMS_P2;Temp;Humidity;BMP_temperature;BMP_pressure;BME280_temperature;BME280_humidity;BME280_pressure;Samples;Min_cycle;Max_cycle;Signal;HPM_P1;HPM_P2
2022/05/16 00:00:26;;;;;;;0.20;0.20;;;;;;;30.15;31.84;96589.09;5082904;28;20422;-31
2022/05/16 00:02:53;;;;;;;0.30;0.30;;;;;;;30.14;31.93;96587.44;5083405;28;20756;-29
2022/05/16 00:05:19;;;;;;;0.20;0.20;;;;;;;30.15;31.83;96578.53;5084901;28;20044;-30
2022/05/16 00:07:44;;;;;;;0.45;0.30;;;;;;;30.15;32.10;96583.81;5082011;28;20137;-30
2022/05/16 00:10:10;;;;;;;0.30;0.30;;;;;;;30.15;32.01;96575.03;5083685;28;20824;-29
2022/05/16 00:12:35;;;;;;;0.20;0.20;;;;;;;30.14;31.99;96576.84;5083379;28;20442;-36
2022/05/16 00:15:01;;;;;;;0.30;0.30;;;;;;;30.13;32.35;96575.16;5083348;28;20503;-29
2022/05/16 00:17:26;;;;;;;0.22;0.20;;;;;;;30.13;32.19;96572.50;5076830;28;20828;-29
2022/05/16 00:19:52;;;;;;;0.25;0.22;;;;;;;30.14;31.88;96562.78;5084702;28;20035;-31
2022/05/16 00:22:17;;;;;;;0.35;0.30;;;;;;;30.13;32.10;96569.84;5085776;28;20293;-29
2022/05/16 00:24:43;;;;;;;0.30;0.30;;;;;;;30.13;31.95;96564.56;5084697;28;20782;-30
2022/05/16 00:27:09;;;;;;;1.02;0.30;;;;;;;30.14;32.26;96563.63;5080584;28;20026;-30
2022/05/16 00:29:34;;;;;;;0.30;0.30;;;;;;;30.13;32.22;96554.00;5083473;28;20060;-32
2022/05/16 00:31:59;;;;;;;0.25;0.25;;;;;;;30.12;32.52;96554.97;5082941;28;20031;-32
2022/05/16 00:34:25;;;;;;;0.30;0.30;;;;;;;30.13;32.23;96559.28;5082114;28;20027;-32
2022/05/16 00:36:51;;;;;;;0.25;0.25;;;;;;;30.12;32.32;96558.47;5081454;28;20127;-31
2022/05/16 00:39:17;;;;;;;0.20;0.20;;;;;;;30.13;32.03;96559.28;5084967;28;20028;-30
2022/05/16 00:41:43;;;;;;;0.22;0.22;;;;;;;30.12;31.99;96547.03;5081505;28;20284;-29
2022/05/16 00:44:08;;;;;;;0.20;0.20;;;;;;;30.11;31.83;96540.03;5080450;28;20819;-30
2022/05/16 00:46:33;;;;;;;0.47;0.28;;;;;;;30.12;31.85;96539.13;5082212;28;20035;-33
2022/05/16 00:49:00;;;;;;;0.20;0.20;;;;;;;30.11;32.48;96534.75;5083019;28;20056;-31
2022/05/16 00:51:26;;;;;;;0.20;0.20;;;;;;;30.12;31.69;96536.47;5080628;28;20035;-29
2022/05/16 00:53:54;;;;;;;0.28;0.28;;;;;;;30.11;32.00;96537.41;5085999;28;20501;-30
2022/05/16 00:56:19;;;;;;;0.20;0.20;;;;;;;30.11;31.79;96537.41;5080722;28;20024;-32
2022/05/16 00:58:45;;;;;;;0.30;0.20;;;;;;;30.11;32.25;96543.53;5064728;28;20039;-29
2022/05/16 01:06:54;;;;;;;0.20;0.20;;;;;;;30.10;32.25;96533.09;5046516;28;20039;-30
2022/05/16 01:09:20;;;;;;;0.17;0.17;;;;;;;30.10;32.14;96533.09;5081723;28;20039;-30
2022/05/16 01:11:45;;;;;;;0.10;0.10;;;;;;;30.09;31.70;96531.41;5086393;28;20063;-31
2022/05/16 01:14:11;;;;;;;0.35;0.20;;;;;;;30.08;32.09;96525.28;5084322;28;20035;-30
2022/05/16 01:16:36;;;;;;;0.43;0.20;;;;;;;30.08;32.04;96522.63;5078301;28;20054;-30
2022/05/16 01:19:02;;;;;;;0.35;0.15;;;;;;;30.09;32.00;96521.66;5077777;28;20042;-30
2022/05/16 01:21:33;;;;;;;0.20;0.20;;;;;;;30.09;31.95;96520.84;5082428;28;20023;-30
2022/05/16 01:24:05;;;;;;;0.28;0.28;;;;;;;30.08;31.98;96529.69;5081538;28;20119;-30
2022/05/16 01:26:31;;;;;;;0.20;0.20;;;;;;;30.08;31.75;96532.34;5083408;28;20478;-31
2022/05/16 01:28:56;;;;;;;0.38;0.22;;;;;;;30.07;32.27;96534.16;5082456;28;20038;-30
2022/05/16 01:31:22;;;;;;;0.20;0.20;;;;;;;30.05;32.09;96533.41;5081202;28;20437;-31
2022/05/16 01:33:47;;;;;;;0.30;0.20;;;;;;;30.07;31.76;96530.66;5083927;28;20042;-31
2022/05/16 01:36:12;;;;;;;0.15;0.15;;;;;;;30.07;32.12;96522.75;5083006;28;20035;-30
2022/05/16 01:38:39;;;;;;;0.43;0.30;;;;;;;30.07;31.94;96533.31;5083288;28;20028;-30
2022/05/16 01:41:04;;;;;;;0.30;0.28;;;;;;;30.07;32.00;96531.53;5085255;28;20103;-30
2022/05/16 01:43:32;;;;;;;0.35;0.30;;;;;;;30.07;31.75;96523.59;5084966;28;20802;-29
2022/05/16 01:45:58;;;;;;;0.20;0.20;;;;;;;30.07;31.89;96523.59;5078140;28;20650;-30
2022/05/16 01:48:23;;;;;;;0.20;0.20;;;;;;;30.04;32.01;96525.59;5081517;28;20028;-29
2022/05/16 01:50:49;;;;;;;0.20;0.20;;;;;;;30.06;32.29;96521.06;5080101;28;20024;-30
2022/05/16 01:53:14;;;;;;;0.30;0.30;;;;;;;30.06;32.05;96518.41;5082132;28;20027;-31
2022/05/16 01:55:40;;;;;;;0.20;0.20;;;;;;;30.05;32.32;96509.63;5081195;28;20035;-29
2022/05/16 01:58:05;;;;;;;0.30;0.30;;;;;;;30.06;31.77;96510.50;5081693;28;20023;-30
2022/05/16 02:00:31;;;;;;;0.20;0.20;;;;;;;30.05;32.25;96508.81;5081922;28;20165;-30
2022/05/16 02:02:57;;;;;;;0.20;0.20;;;;;;;30.05;31.85;96509.63;5081404;28;20032;-30
2022/05/16 02:05:23;;;;;;;0.68;0.20;;;;;;;30.05;32.04;96516.75;5082731;28;20036;-29
2022/05/16 02:07:50;;;;;;;0.15;0.15;;;;;;;30.05;32.26;96514.91;5079125;28;20027;-29
2022/05/16 02:10:15;;;;;;;0.40;0.32;;;;;;;30.05;31.96;96514.09;5080683;28;20039;-31
2022/05/16 02:12:41;;;;;;;0.20;0.20;;;;;;;30.05;31.94;96520.22;5081507;28;20395;-28
2022/05/16 02:15:08;;;;;;;0.30;0.30;;;;;;;30.05;32.25;96508.81;5080785;28;20077;-30
2022/05/16 02:17:33;;;;;;;0.20;0.20;;;;;;;30.04;32.31;96521.16;5080929;28;20039;-31
2022/05/16 02:19:59;;;;;;;0.20;0.20;;;;;;;30.04;31.89;96512.38;5083199;28;20028;-29
2022/05/16 02:25:08;;;;;;;0.20;0.20;;;;;;;30.04;32.26;96518.53;5082062;28;20505;-30
2022/05/16 02:27:34;;;;;;;0.38;0.20;;;;;;;30.04;31.75;96522.97;5080105;28;20020;-29
2022/05/16 02:29:59;;;;;;;0.20;0.20;;;;;;;30.03;31.79;96526.56;5081887;28;20032;-30
2022/05/16 02:32:24;;;;;;;0.75;0.28;;;;;;;30.03;32.09;96526.56;5081019;28;20032;-30
2022/05/16 02:34:50;;;;;;;0.30;0.20;;;;;;;30.03;31.93;96542.41;5081900;28;20046;-32
2022/05/16 02:37:16;;;;;;;0.30;0.20;;;;;;;30.03;31.98;96542.41;5081006;28;20393;-32
2022/05/16 02:39:44;;;;;;;0.15;0.15;;;;;;;30.02;31.72;96544.25;5082632;28;20064;-29
2022/05/16 02:42:11;;;;;;;0.20;0.20;;;;;;;30.03;31.82;96548.56;5082758;28;20082;-31
2022/05/16 02:44:38;;;;;;;0.20;0.20;;;;;;;30.02;31.58;96546.88;5083319;28;20032;-29
2022/05/16 02:47:05;;;;;;;0.28;0.20;;;;;;;30.02;31.70;96548.66;5086336;28;20055;-32
2022/05/16 02:49:30;;;;;;;0.20;0.20;;;;;;;30.02;32.11;96552.16;5085245;28;20054;-29
2022/05/16 02:51:56;;;;;;;0.20;0.20;;;;;;;30.02;32.09;96551.31;5080622;28;20031;-30
2022/05/16 02:54:21;;;;;;;0.20;0.20;;;;;;;30.02;31.89;96551.31;5083736;28;20047;-31
2022/05/16 02:56:47;;;;;;;0.20;0.20;;;;;;;30.01;32.09;96547.00;5084949;28;20081;-31
2022/05/16 02:59:12;;;;;;;0.10;0.10;;;;;;;30.01;31.89;96549.63;5085999;28;20679;-29
2022/05/16 03:01:38;;;;;;;0.10;0.10;;;;;;;30.01;31.97;96554.91;5083889;28;20028;-31
2022/05/16 03:04:04;;;;;;;0.30;0.30;;;;;;;30.01;31.77;96552.28;5085452;28;20039;-33
2022/05/16 03:06:29;;;;;;;0.30;0.30;;;;;;;30.00;31.81;96554.06;5084354;28;20057;-34
2022/05/16 03:08:54;;;;;;;0.22;0.20;;;;;;;30.01;31.90;96549.63;5083229;28;20028;-30
2022/05/16 03:11:22;;;;;;;0.52;0.17;;;;;;;30.01;31.98;96560.19;5085493;28;20409;-31
2022/05/16 03:13:48;;;;;;;0.30;0.20;;;;;;;30.01;32.04;96560.19;5085183;28;20065;-29
2022/05/16 03:16:13;;;;;;;0.20;0.10;;;;;;;30.00;31.76;96572.56;5084474;28;20229;-30
2022/05/16 03:18:38;;;;;;;0.20;0.20;;;;;;;29.99;32.02;96565.59;5081066;28;20028;-30
2022/05/16 03:21:04;;;;;;;0.32;0.20;;;;;;;29.99;31.88;96563.78;5084765;28;20046;-31
2022/05/16 03:23:29;;;;;;;0.20;0.20;;;;;;;29.99;32.15;96561.13;5086714;28;20518;-30
2022/05/16 03:25:55;;;;;;;0.40;0.30;;;;;;;29.99;32.23;96558.50;5085020;28;20510;-31
2022/05/16 03:28:20;;;;;;;0.38;0.38;;;;;;;29.99;31.87;96557.66;5086092;28;20035;-30
2022/05/16 03:30:46;;;;;;;0.45;0.30;;;;;;;29.98;31.73;96556.81;5086394;28;20047;-30
2022/05/16 03:33:11;;;;;;;0.30;0.30;;;;;;;29.98;31.95;96562.09;5081654;28;20070;-30
2022/05/16 03:35:36;;;;;;;0.20;0.20;;;;;;;29.97;32.01;96552.50;5084871;28;20530;-31
2022/05/16 03:38:02;;;;;;;0.20;0.20;;;;;;;29.96;32.21;96553.44;5084506;28;20039;-35
2022/05/16 03:40:43;;;;;;;0.30;0.30;;;;;;;29.97;31.69;96557.78;5083366;28;20043;-33
2022/05/16 03:43:09;;;;;;;0.40;0.30;;;;;;;29.97;32.20;96560.41;5084047;28;20077;-29
2022/05/16 03:45:36;;;;;;;0.20;0.20;;;;;;;29.95;31.75;96551.75;5083702;28;20054;-30
2022/05/16 03:48:01;;;;;;;0.20;0.20;;;;;;;29.96;31.91;96564.03;5085674;28;20043;-31
2022/05/16 03:50:27;;;;;;;0.30;0.22;;;;;;;29.97;31.90;96564.84;5082277;28;20028;-32
2022/05/16 03:52:52;;;;;;;0.20;0.20;;;;;;;29.96;31.84;96571.94;5084799;28;20036;-32
2022/05/16 03:55:18;;;;;;;0.10;0.10;;;;;;;29.96;32.12;96577.22;5083564;28;20993;-39
2022/05/16 03:57:43;;;;;;;0.28;0.10;;;;;;;29.96;31.73;96579.88;5083790;28;20032;-30
2022/05/16 04:00:11;;;;;;;0.20;0.20;;;;;;;29.96;31.96;96579.88;5084101;28;20538;-30
2022/05/16 04:02:37;;;;;;;0.22;0.20;;;;;;;29.96;32.14;96579.88;5085552;28;20080;-31
2022/05/16 04:05:03;;;;;;;0.32;0.30;;;;;;;29.96;32.15;96582.50;5085180;28;20669;-29
2022/05/16 04:07:29;;;;;;;0.30;0.25;;;;;;;29.95;32.12;96594.00;5082310;28;20032;-30
2022/05/16 04:09:54;;;;;;;0.30;0.30;;;;;;;29.96;32.02;96589.59;5085164;28;20027;-30
2022/05/16 04:12:20;;;;;;;0.20;0.20;;;;;;;29.95;32.16;96578.16;5085200;28;20689;-29
2022/05/16 04:14:46;;;;;;;0.20;0.20;;;;;;;29.95;31.67;96583.44;5083394;28;20074;-37
2022/05/16 04:17:11;;;;;;;0.20;0.20;;;;;;;29.95;32.01;96582.63;5079174;28;20032;-32
2022/05/16 04:19:36;;;;;;;0.22;0.20;;;;;;;29.94;31.96;96584.41;5084324;28;20035;-32
2022/05/16 04:22:02;;;;;;;0.30;0.25;;;;;;;29.95;32.11;96583.44;5084954;28;20028;-30
2022/05/16 04:24:27;;;;;;;0.43;0.30;;;;;;;29.94;31.86;96581.78;5082982;28;20155;-33
2022/05/16 04:26:53;;;;;;;0.30;0.30;;;;;;;29.94;31.72;96584.41;5082622;28;20039;-30
2022/05/16 04:29:18;;;;;;;0.20;0.20;;;;;;;29.94;32.08;96589.69;5083035;28;20548;-32
2022/05/16 04:31:44;;;;;;;0.30;0.30;;;;;;;29.95;31.71;96583.44;5082662;28;20032;-32
2022/05/16 04:34:09;;;;;;;0.43;0.30;;;;;;;29.95;31.70;96582.63;5083207;28;20035;-31
2022/05/16 04:36:36;;;;;;;0.20;0.20;;;;;;;29.94;31.93;96587.06;5084318;28;20517;-31
2022/05/16 04:39:02;;;;;;;0.30;0.30;;;;;;;29.95;31.62;96590.56;5083050;28;20085;-34
2022/05/16 04:44:11;;;;;;;0.30;0.20;;;;;;;29.95;32.18;96588.72;5084780;28;20046;-30
2022/05/16 04:46:36;;;;;;;0.20;0.20;;;;;;;29.95;32.06;96588.72;5085099;28;20028;-31
2022/05/16 04:49:02;;;;;;;0.30;0.30;;;;;;;29.94;32.37;96584.41;5083319;28;20521;-30
2022/05/16 04:51:28;;;;;;;0.22;0.20;;;;;;;29.92;31.98;96588.97;5083292;28;20042;-32
2022/05/16 04:53:53;;;;;;;0.30;0.30;;;;;;;29.94;31.85;96587.06;5082282;28;20027;-30
2022/05/16 04:56:19;;;;;;;0.35;0.30;;;;;;;29.94;32.07;96587.06;5080059;28;20043;-30
2022/05/16 04:58:44;;;;;;;0.30;0.20;;;;;;;29.95;32.07;96582.63;5080899;28;23043;-30
2022/05/16 05:01:09;;;;;;;0.20;0.10;;;;;;;29.95;31.63;96588.72;5082641;28;20055;-32
2022/05/16 05:03:35;;;;;;;0.30;0.30;;;;;;;29.93;31.61;96590.66;5084914;28;20054;-30
2022/05/16 05:06:00;;;;;;;0.20;0.20;;;;;;;29.94;31.75;96587.06;5084103;28;20032;-31
2022/05/16 05:08:26;;;;;;;0.20;0.20;;;;;;;29.94;32.14;96587.06;5082775;28;20038;-29
2022/05/16 05:16:20;;;;;;;0.30;0.30;;;;;;;29.93;31.67;96585.38;5081947;28;20521;-30
2022/05/16 05:18:46;;;;;;;0.40;0.30;;;;;;;29.92;31.79;96588.97;5081250;28;20663;-30
2022/05/16 05:21:11;;;;;;;0.20;0.20;;;;;;;29.92;32.04;96581.06;5080899;28;20042;-31
2022/05/16 05:23:38;;;;;;;0.40;0.30;;;;;;;29.91;32.09;96587.31;5082006;28;20028;-30
2022/05/16 05:26:04;;;;;;;0.20;0.20;;;;;;;29.93;31.89;96595.09;5081171;28;20544;-30
2022/05/16 05:28:29;;;;;;;0.20;0.20;;;;;;;29.92;31.66;96596.91;5082827;28;20024;-31
2022/05/16 05:30:55;;;;;;;1.45;0.30;;;;;;;29.92;32.07;96596.91;5083990;28;20051;-32
2022/05/16 05:33:20;;;;;;;0.20;0.15;;;;;;;29.93;32.09;96606.50;5085974;28;20745;-31
2022/05/16 05:35:46;;;;;;;0.30;0.30;;;;;;;29.92;31.78;96609.25;5082681;28;20032;-29
2022/05/16 05:38:11;;;;;;;0.28;0.28;;;;;;;29.92;32.19;96612.75;5082390;28;20552;-29
2022/05/16 05:40:40;;;;;;;0.40;0.30;;;;;;;29.92;31.52;96615.41;5081198;28;20032;-31
2022/05/16 05:43:06;;;;;;;0.20;0.20;;;;;;;29.93;31.89;96616.22;5081377;28;20028;-30
2022/05/16 05:45:31;;;;;;;0.45;0.30;;;;;;;29.93;31.73;96626.78;5082428;28;20542;-30
2022/05/16 05:47:57;;;;;;;0.22;0.20;;;;;;;29.94;32.17;96631.97;5082353;28;20028;-31
2022/05/16 05:50:24;;;;;;;0.20;0.20;;;;;;;29.94;32.06;96639.06;5081076;28;20109;-29
2022/05/16 05:52:49;;;;;;;1.70;0.20;;;;;;;29.94;32.15;96641.72;5082776;28;20142;-30
2022/05/16 05:55:14;;;;;;;0.30;0.30;;;;;;;29.93;31.88;96646.13;5079800;28;20030;-30
2022/05/16 05:57:40;;;;;;;0.28;0.20;;;;;;;29.94;31.93;96639.06;5082936;28;20503;-29
2022/05/16 06:00:06;;;;;;;0.45;0.22;;;;;;;29.94;31.76;96644.34;5078364;28;20036;-29
2022/05/16 06:02:32;;;;;;;0.60;0.20;;;;;;;29.94;31.60;96654.91;5080462;28;20680;-32
2022/05/16 06:04:57;;;;;;;0.95;0.30;;;;;;;29.94;31.53;96655.75;5082078;28;20040;-31
2022/05/16 06:07:23;;;;;;;0.20;0.20;;;;;;;29.94;32.12;96661.03;5081337;28;20502;-30
2022/05/16 06:09:48;;;;;;;0.20;0.20;;;;;;;29.94;32.06;96661.03;5082865;28;20127;-30
2022/05/16 06:12:14;;;;;;;0.20;0.20;;;;;;;29.95;32.05;96652.13;5081748;28;20122;-30
2022/05/16 06:14:43;;;;;;;0.38;0.30;;;;;;;29.95;32.00;96651.31;5080274;28;20035;-31
2022/05/16 06:17:09;;;;;;;0.38;0.30;;;;;;;29.95;32.03;96649.50;5076398;28;20530;-30
2022/05/16 06:19:36;;;;;;;0.15;0.15;;;;;;;29.95;31.94;96657.41;5084667;28;20062;-29
2022/05/16 06:22:02;;;;;;;0.25;0.25;;;;;;;29.96;32.14;96663.56;5083911;28;20157;-32
2022/05/16 06:27:11;;;;;;;0.30;0.30;;;;;;;29.96;32.00;96664.41;5084918;28;20039;-31
2022/05/16 06:29:37;;;;;;;0.25;0.25;;;;;;;29.96;31.84;96658.28;5085042;28;20031;-29
2022/05/16 06:32:02;;;;;;;0.52;0.30;;;;;;;29.96;32.17;96667.06;5083859;28;20024;-31
2022/05/16 06:34:28;;;;;;;0.93;0.38;;;;;;;29.97;31.93;96670.53;5084736;28;20686;-29
2022/05/16 06:36:53;;;;;;;0.30;0.30;;;;;;;29.96;31.88;96672.34;5086397;28;20036;-31
2022/05/16 06:39:18;;;;;;;0.20;0.20;;;;;;;29.96;31.68;96669.69;5087463;28;20034;-30
2022/05/16 06:41:44;;;;;;;0.60;0.38;;;;;;;29.97;31.70;96671.38;5083189;28;20573;-29
2022/05/16 06:44:13;;;;;;;0.35;0.30;;;;;;;29.97;32.21;96668.75;5084094;28;20047;-29
2022/05/16 06:46:39;;;;;;;0.30;0.20;;;;;;;29.97;31.90;96670.53;5082058;28;20108;-31
2022/05/16 06:49:04;;;;;;;0.20;0.20;;;;;;;29.97;32.00;96675.81;5083497;28;20040;-30
2022/05/16 06:51:30;;;;;;;0.30;0.30;;;;;;;29.98;31.82;96673.06;5084071;28;20039;-33
2022/05/16 06:53:55;;;;;;;0.20;0.20;;;;;;;29.97;32.16;96667.88;5086887;28;20039;-30
2022/05/16 06:56:21;;;;;;;0.30;0.20;;;;;;;29.99;31.75;96679.19;5086570;28;20028;-31
2022/05/16 06:58:46;;;;;;;0.28;0.28;;;;;;;29.98;31.91;96681.00;5084104;28;20027;-29
2022/05/16 07:01:11;;;;;;;0.22;0.22;;;;;;;29.99;32.20;96679.19;5085523;28;20774;-30
2022/05/16 07:03:40;;;;;;;0.20;0.20;;;;;;;29.99;32.14;96674.75;5086877;28;20084;-32
2022/05/16 07:06:06;;;;;;;0.30;0.30;;;;;;;30.01;31.80;96679.91;5082117;28;20028;-33
2022/05/16 07:08:33;;;;;;;0.20;0.20;;;;;;;30.00;32.10;96680.88;5084043;28;20024;-29
2022/05/16 07:10:58;;;;;;;0.22;0.22;;;;;;;30.01;32.07;96679.09;5086253;28;20124;-29
2022/05/16 07:13:24;;;;;;;0.20;0.20;;;;;;;29.99;32.14;96685.31;5084407;28;20974;-31
2022/05/16 07:15:50;;;;;;;0.47;0.30;;;;;;;30.01;32.02;96693.13;5082814;28;20060;-30
2022/05/16 07:18:15;;;;;;;0.70;0.30;;;;;;;30.02;32.09;96696.63;5082749;28;20051;-30
2022/05/16 07:20:40;;;;;;;0.30;0.30;;;;;;;30.02;32.06;96688.69;5085523;28;20039;-30
2022/05/16 07:23:06;;;;;;;0.30;0.30;;;;;;;30.02;31.85;96693.97;5085850;28;20051;-32
2022/05/16 07:27:56;;;;;;;0.20;0.20;;;;;;;30.02;32.08;96699.25;5086107;28;20084;-30
2022/05/16 07:28:17;;;;;;;0.20;0.20;;;;;;;30.02;31.87;96702.75;5081393;28;20063;-29
2022/05/16 07:30:42;;;;;;;0.30;0.30;;;;;;;30.03;31.85;96701.81;5082784;28;20181;-30
2022/05/16 07:33:08;;;;;;;0.57;0.32;;;;;;;30.03;31.82;96711.53;5082623;28;20024;-30
2022/05/16 07:35:33;;;;;;;1.05;0.30;;;;;;;30.03;32.00;96708.88;5084839;28;20039;-31
2022/05/16 07:37:59;;;;;;;0.65;0.35;;;;;;;30.04;32.23;96713.19;5083031;28;20039;-30
2022/05/16 07:40:26;;;;;;;0.35;0.30;;;;;;;30.03;32.19;96714.16;5085458;28;20121;-30
2022/05/16 07:42:52;;;;;;;0.20;0.20;;;;;;;30.03;32.13;96722.09;5085692;28;20036;-32
2022/05/16 07:45:18;;;;;;;0.75;0.45;;;;;;;30.03;32.12;96716.81;5083357;28;20115;-31
2022/05/16 07:47:43;;;;;;;0.50;0.35;;;;;;;30.04;31.83;96715.84;5083779;28;20466;-31
2022/05/16 07:50:09;;;;;;;0.22;0.22;;;;;;;30.04;32.29;96721.13;5085178;28;20035;-32
2022/05/16 07:52:35;;;;;;;0.30;0.30;;;;;;;30.04;31.81;96723.78;5082316;28;20024;-30
2022/05/16 07:55:00;;;;;;;0.43;0.30;;;;;;;30.04;32.02;96724.63;5084480;28;20394;-31
2022/05/16 07:57:26;;;;;;;0.20;0.20;;;;;;;30.05;32.24;96723.66;5083950;28;21187;-29
2022/05/16 07:59:52;;;;;;;0.47;0.30;;;;;;;30.05;31.84;96733.41;5084371;28;20035;-30
2022/05/16 08:02:17;;;;;;;0.30;0.30;;;;;;;30.04;31.98;96721.13;5083571;28;20367;-33
2022/05/16 08:04:42;;;;;;;0.22;0.20;;;;;;;30.06;31.92;96721.88;5084684;28;20046;-31
2022/05/16 08:07:08;;;;;;;0.20;0.20;;;;;;;30.05;31.98;96728.94;5083933;28;20024;-30
2022/05/16 08:12:32;;;;;;;0.45;0.20;;;;;;;30.06;32.29;96732.44;5081410;28;20039;-34
2022/05/16 08:14:57;;;;;;;0.90;0.30;;;;;;;30.06;31.72;96732.44;5079965;28;20155;-29
2022/05/16 08:17:23;;;;;;;0.17;0.15;;;;;;;30.06;32.15;96732.44;5079090;28;20024;-30
2022/05/16 08:19:49;;;;;;;0.50;0.35;;;;;;;30.06;31.87;96729.81;5084768;28;20081;-30
2022/05/16 08:22:14;;;;;;;0.95;0.35;;;;;;;30.06;31.92;96737.72;5085768;28;20032;-30
2022/05/16 08:24:40;;;;;;;0.57;0.30;;;;;;;30.07;31.99;96734.13;5082697;28;20031;-32
2022/05/16 08:27:06;;;;;;;0.30;0.30;;;;;;;30.07;32.36;96742.06;5081324;28;20028;-32
2022/05/16 08:29:32;;;;;;;0.82;0.40;;;;;;;30.06;31.88;96738.56;5085061;28;20051;-30
2022/05/16 08:31:57;;;;;;;0.32;0.32;;;;;;;30.07;32.37;96745.56;5086200;28;20028;-30
2022/05/16 08:34:23;;;;;;;0.40;0.40;;;;;;;30.08;32.35;96743.72;5083835;28;20057;-32
2022/05/16 08:42:17;;;;;;;0.20;0.20;;;;;;;30.08;31.88;96749.03;5082889;28;20099;-33
2022/05/16 08:44:43;;;;;;;0.30;0.30;;;;;;;30.09;31.74;96758.66;5065995;28;20436;-30
2022/05/16 08:47:29;;;;;;;0.63;0.25;;;;;;;30.08;31.89;96763.09;5080787;28;20054;-30
2022/05/16 08:49:56;;;;;;;0.40;0.32;;;;;;;30.08;32.18;96755.16;5081724;28;20043;-29
2022/05/16 08:52:27;;;;;;;0.20;0.20;;;;;;;30.08;32.02;96756.94;5078304;28;20362;-31
2022/05/16 08:54:59;;;;;;;0.40;0.35;;;;;;;30.09;32.35;96763.94;5082788;28;21012;-31
2022/05/16 08:57:28;;;;;;;0.40;0.40;;;;;;;30.09;32.30;96763.94;5081952;28;20073;-32
2022/05/16 09:00:07;;;;;;;0.20;0.20;;;;;;;30.10;31.98;96762.97;5075947;28;20036;-34
2022/05/16 09:02:32;;;;;;;2.53;0.30;;;;;;;30.10;32.34;96757.69;5083029;28;20027;-30
2022/05/16 09:05:34;;;;;;;0.30;0.30;;;;;;;30.10;31.95;96766.44;5085393;28;20426;-30
2022/05/16 09:08:00;;;;;;;0.40;0.40;;;;;;;30.10;32.32;96777.03;5081298;28;20402;-31
2022/05/16 09:10:57;;;;;;;0.30;0.30;;;;;;;30.10;32.24;96766.44;5080251;28;20024;-31
2022/05/16 09:13:36;;;;;;;0.82;0.30;;;;;;;30.10;32.55;96776.19;5081487;28;20036;-31
2022/05/16 09:16:26;;;;;;;0.17;0.17;;;;;;;30.11;31.82;96783.16;5080320;28;20538;-34
2022/05/16 09:19:12;;;;;;;0.38;0.30;;;;;;;30.11;32.22;96778.72;5081967;28;20036;-31
2022/05/16 09:21:44;;;;;;;0.50;0.30;;;;;;;30.11;31.89;96784.00;5085305;28;20068;-29
2022/05/16 09:24:11;;;;;;;0.65;0.28;;;;;;;30.11;32.37;96785.81;5081125;28;20115;-33
2022/05/16 09:27:04;;;;;;;0.30;0.20;;;;;;;30.12;32.20;96801.59;5081513;28;20118;-31
2022/05/16 09:29:32;;;;;;;0.20;0.20;;;;;;;30.12;32.03;96806.03;5082898;28;20103;-31
2022/05/16 09:32:21;;;;;;;0.45;0.30;;;;;;;30.12;31.97;96806.03;5083441;28;20035;-30
2022/05/16 09:34:47;;;;;;;2.20;0.30;;;;;;;30.13;32.04;96810.34;5090254;28;20212;-31
2022/05/16 09:37:12;;;;;;;0.35;0.22;;;;;;;30.13;32.35;96807.69;5082702;28;20036;-32
2022/05/16 09:39:39;;;;;;;0.30;0.30;;;;;;;30.13;32.27;96810.34;5083348;28;20494;-31
2022/05/16 09:42:15;;;;;;;0.20;0.20;;;;;;;30.14;32.44;96813.84;5081159;28;20035;-32
2022/05/16 09:44:44;;;;;;;0.60;0.40;;;;;;;30.14;32.64;96809.41;5080536;28;20061;-30
2022/05/16 09:47:21;;;;;;;0.60;0.40;;;;;;;30.15;32.50;96815.53;5081942;28;20031;-31
2022/05/16 09:50:02;;;;;;;0.50;0.30;;;;;;;30.15;32.31;96805.81;5084497;28;20031;-31
2022/05/16 09:52:27;;;;;;;0.32;0.30;;;;;;;30.16;32.02;96815.41;5076518;28;20024;-33
2022/05/16 09:55:11;;;;;;;0.52;0.40;;;;;;;30.15;32.07;96816.38;5081513;28;20676;-29
2022/05/16 09:57:50;;;;;;;0.50;0.32;;;;;;;30.16;32.61;96810.13;5082258;28;20624;-32
2022/05/16 10:00:31;;;;;;;0.55;0.38;;;;;;;30.17;32.25;96813.63;5083121;28;20095;-31
2022/05/16 10:03:01;;;;;;;0.40;0.30;;;;;;;30.17;31.93;96817.09;5077890;28;20169;-31
2022/05/16 10:05:29;;;;;;;0.50;0.30;;;;;;;30.17;32.21;96811.81;5082122;28;20028;-32
2022/05/16 10:08:06;;;;;;;0.40;0.30;;;;;;;30.18;32.40;96816.16;5083218;28;20028;-31
2022/05/16 10:10:36;;;;;;;1.10;0.50;;;;;;;30.18;32.02;96815.31;5083099;28;20038;-31
2022/05/16 10:13:03;;;;;;;0.35;0.30;;;;;;;30.18;32.31;96815.31;5082130;28;20063;-30
2022/05/16 10:15:28;;;;;;;0.40;0.40;;;;;;;30.18;32.06;96826.75;5081609;28;20107;-30
2022/05/16 10:17:55;;;;;;;0.28;0.28;;;;;;;30.18;32.69;96815.31;5064515;28;20054;-33
2022/05/16 10:20:27;;;;;;;0.75;0.40;;;;;;;30.19;32.09;96823.13;5077281;28;20105;-30
2022/05/16 10:22:56;;;;;;;1.17;0.40;;;;;;;30.18;32.15;96810.88;5080707;28;20063;-32
2022/05/16 10:25:23;;;;;;;0.30;0.30;;;;;;;30.20;32.66;96823.97;5064194;28;20130;-32
2022/05/16 10:27:49;;;;;;;0.40;0.40;;;;;;;30.21;32.62;96825.69;5079099;28;20934;-29
2022/05/16 10:30:20;;;;;;;1.05;0.30;;;;;;;30.20;32.20;96824.81;5063162;28;20687;-30
2022/05/16 10:35:50;;;;;;;1.65;0.30;;;;;;;30.19;31.94;96828.44;5083540;28;20117;-30
2022/05/16 10:38:31;;;;;;;0.30;0.30;;;;;;;30.20;32.43;96835.38;5068725;28;20035;-31
2022/05/16 10:40:58;;;;;;;0.33;0.33;;;;;;;30.21;32.29;96837.06;5083272;28;20379;-30
2022/05/16 10:43:47;;;;;;;0.40;0.40;;;;;;;30.21;32.17;96842.34;5079879;28;20144;-31
2022/05/16 10:46:18;;;;;;;1.15;0.30;;;;;;;30.22;32.55;96841.44;5079300;28;20143;-29
2022/05/16 10:49:01;;;;;;;;;;;;;;;30.22;32.80;96844.06;5090029;28;20152;-30
2022/05/16 10:51:31;;;;;;;0.30;0.30;;;;;;;30.22;32.41;96838.78;5093351;28;19927;-30
2022/05/16 10:54:29;;;;;;;0.30;0.30;;;;;;;30.22;32.47;96846.72;5083661;28;20040;-31
2022/05/16 10:57:04;;;;;;;0.40;0.40;;;;;;;30.22;32.60;96853.78;5052364;28;20054;-30
2022/05/16 10:59:47;;;;;;;1.17;0.85;;;;;;;30.21;32.51;96860.88;5081990;28;20036;-31
2022/05/16 11:02:37;;;;;;;0.75;0.40;;;;;;;30.21;32.56;96868.78;5075478;28;20127;-33
2022/05/16 11:05:11;;;;;;;1.10;0.40;;;;;;;30.22;32.46;96875.78;5085140;28;20036;-33
2022/05/16 11:08:03;;;;;;;0.30;0.30;;;;;;;30.22;32.27;96870.50;5083476;28;20032;-31
2022/05/16 11:10:40;;;;;;;0.35;0.35;;;;;;;30.23;32.43;96874.84;5086538;28;20058;-30
2022/05/16 11:13:17;;;;;;;0.63;0.30;;;;;;;30.23;32.45;96887.19;5081722;28;20720;-30
2022/05/16 11:15:56;;;;;;;0.32;0.30;;;;;;;30.21;32.46;96884.66;5085026;28;20517;-32
2022/05/16 11:18:24;;;;;;;0.63;0.40;;;;;;;30.22;32.38;96894.28;5086407;28;20027;-30
2022/05/16 11:21:19;;;;;;;0.50;0.40;;;;;;;30.23;32.78;96888.03;5087056;28;20039;-30
2022/05/16 11:23:56;;;;;;;0.40;0.40;;;;;;;30.24;32.70;96900.31;5085784;28;20035;-31
2022/05/16 11:26:24;;;;;;;1.60;0.50;;;;;;;30.23;32.04;96906.56;5085432;28;20027;-30
2022/05/16 11:29:17;;;;;;;0.38;0.38;;;;;;;30.24;32.70;96918.81;5084891;28;20089;-30
2022/05/16 11:32:00;;;;;;;0.35;0.30;;;;;;;30.24;32.58;96916.16;5086503;28;20036;-30
2022/05/16 11:34:49;;;;;;;0.55;0.30;;;;;;;30.23;32.22;96919.75;5081781;28;20057;-29
2022/05/16 11:37:35;;;;;;;0.77;0.45;;;;;;;30.24;32.32;96932.03;5083821;28;20032;-29
2022/05/16 11:40:00;;;;;;;0.40;0.40;;;;;;;30.24;32.86;96942.59;5053783;28;20070;-32
2022/05/16 11:42:41;;;;;;;0.68;0.50;;;;;;;30.24;32.16;96934.66;5086143;28;20683;-32
2022/05/16 11:45:18;;;;;;;0.30;0.30;;;;;;;30.25;32.23;96917.84;5085528;28;20062;-31
2022/05/16 11:48:09;;;;;;;0.50;0.47;;;;;;;30.25;32.32;96907.28;5079973;28;20028;-29
2022/05/16 11:50:40;;;;;;;0.75;0.40;;;;;;;30.25;32.59;96909.91;5086714;28;20043;-31
2022/05/16 11:53:27;;;;;;;0.40;0.30;;;;;;;30.26;32.04;96905.50;5084386;28;20135;-29
2022/05/16 12:01:38;;;;;;;1.05;0.70;;;;;;;30.26;32.56;96897.56;5072191;28;20046;-30
2022/05/16 12:04:13;;;;;;;0.80;0.43;;;;;;;30.25;32.76;96906.44;5078746;28;20043;-29
2022/05/16 12:06:41;;;;;;;0.90;0.63;;;;;;;30.25;32.16;96886.13;5083141;28;20065;-33
2022/05/16 12:09:23;;;;;;;1.20;0.50;;;;;;;30.25;32.59;96883.47;5084516;28;20584;-31
2022/05/16 12:12:00;;;;;;;0.57;0.47;;;;;;;30.24;32.40;96879.16;5084446;28;20027;-31
2022/05/16 12:14:39;;;;;;;0.40;0.40;;;;;;;30.25;32.67;96886.13;5083365;28;20057;-31
2022/05/16 12:17:07;;;;;;;0.65;0.35;;;;;;;30.26;32.27;96892.28;5081612;28;20063;-30